sensor_id;sensor_type;location;lat;lon;timestamp;temperature;humidity
47861;HTU21D;33620;52.340;5.984;2023-03-07T00:04:07;4.67;95.45
47861;HTU21D;33620;52.340;5.984;2023-03-07T00:06:32;4.66;94.99
47861;HTU21D;33620;52.340;5.984;2023-03-07T00:08:58;4.66;94.93
47861;HTU21D;33620;52.340;5.984;2023-03-07T00:11:24;4.63;95.05
47861;HTU21D;33620;52.340;5.984;2023-03-07T00:13:49;4.66;95.26
47861;HTU21D;33620;52.340;5.984;2023-03-07T00:16:16;4.64;95.45
47861;HTU21D;33620;52.340;5.984;2023-03-07T00:18:42;4.69;95.54
47861;HTU21D;33620;52.340;5.984;2023-03-07T00:21:11;4.67;95.65
47861;HTU21D;33620;52.340;5.984;2023-03-07T00:23:38;4.63;95.89
47861;HTU21D;33620;52.340;5.984;2023-03-07T00:26:11;4.66;95.80
47861;HTU21D;33620;52.340;5.984;2023-03-07T00:28:36;4.67;95.72
47861;HTU21D;33620;52.340;5.984;2023-03-07T00:31:02;4.67;95.75
47861;HTU21D;33620;52.340;5.984;2023-03-07T00:33:28;4.66;95.72
47861;HTU21D;33620;52.340;5.984;2023-03-07T00:35:54;4.71;95.68
47861;HTU21D;33620;52.340;5.984;2023-03-07T00:38:20;4.64;95.68
47861;HTU21D;33620;52.340;5.984;2023-03-07T00:40:46;4.64;95.97
47861;HTU21D;33620;52.340;5.984;2023-03-07T00:43:11;4.63;95.94
47861;HTU21D;33620;52.340;5.984;2023-03-07T00:45:36;4.67;95.99
47861;HTU21D;33620;52.340;5.984;2023-03-07T00:48:02;4.71;96.04
47861;HTU21D;33620;52.340;5.984;2023-03-07T00:50:27;4.69;96.01
47861;HTU21D;33620;52.340;5.984;2023-03-07T00:52:52;4.67;96.12
47861;HTU21D;33620;52.340;5.984;2023-03-07T00:55:18;4.66;95.90
47861;HTU21D;33620;52.340;5.984;2023-03-07T00:57:44;4.65;95.91
47861;HTU21D;33620;52.340;5.984;2023-03-07T01:00:09;4.61;95.90
47861;HTU21D;33620;52.340;5.984;2023-03-07T01:02:35;4.63;95.82
47861;HTU21D;33620;52.340;5.984;2023-03-07T01:05:00;4.59;95.60
47861;HTU21D;33620;52.340;5.984;2023-03-07T01:07:26;4.53;95.50
47861;HTU21D;33620;52.340;5.984;2023-03-07T01:09:51;4.61;95.47
47861;HTU21D;33620;52.340;5.984;2023-03-07T01:12:17;4.63;95.46
47861;HTU21D;33620;52.340;5.984;2023-03-07T01:14:42;4.64;95.40
47861;HTU21D;33620;52.340;5.984;2023-03-07T01:17:07;4.68;95.31
47861;HTU21D;33620;52.340;5.984;2023-03-07T01:19:33;4.69;95.39
47861;HTU21D;33620;52.340;5.984;2023-03-07T01:21:58;4.69;95.52
47861;HTU21D;33620;52.340;5.984;2023-03-07T01:24:23;4.77;95.65
47861;HTU21D;33620;52.340;5.984;2023-03-07T01:26:49;4.67;95.12
47861;HTU21D;33620;52.340;5.984;2023-03-07T01:29:14;4.33;92.92
47861;HTU21D;33620;52.340;5.984;2023-03-07T01:31:39;4.21;92.85
47861;HTU21D;33620;52.340;5.984;2023-03-07T01:34:04;4.17;92.67
47861;HTU21D;33620;52.340;5.984;2023-03-07T01:36:31;4.16;92.31
47861;HTU21D;33620;52.340;5.984;2023-03-07T01:38:58;4.04;92.27
47861;HTU21D;33620;52.340;5.984;2023-03-07T01:41:25;4.10;92.45
47861;HTU21D;33620;52.340;5.984;2023-03-07T01:43:53;4.13;92.75
47861;HTU21D;33620;52.340;5.984;2023-03-07T01:46:23;4.10;93.15
47861;HTU21D;33620;52.340;5.984;2023-03-07T01:51:19;4.14;93.56
47861;HTU21D;33620;52.340;5.984;2023-03-07T01:53:45;4.17;93.71
47861;HTU21D;33620;52.340;5.984;2023-03-07T01:56:12;4.20;93.89
47861;HTU21D;33620;52.340;5.984;2023-03-07T01:58:38;4.24;93.96
47861;HTU21D;33620;52.340;5.984;2023-03-07T02:01:04;4.26;93.97
47861;HTU21D;33620;52.340;5.984;2023-03-07T02:06:22;4.22;94.14
47861;HTU21D;33620;52.340;5.984;2023-03-07T02:08:48;4.27;94.20
47861;HTU21D;33620;52.340;5.984;2023-03-07T02:11:15;4.21;94.19
47861;HTU21D;33620;52.340;5.984;2023-03-07T02:13:40;4.23;94.26
47861;HTU21D;33620;52.340;5.984;2023-03-07T02:16:06;4.21;94.20
47861;HTU21D;33620;52.340;5.984;2023-03-07T02:18:32;4.27;94.32
47861;HTU21D;33620;52.340;5.984;2023-03-07T02:21:02;4.28;94.27
47861;HTU21D;33620;52.340;5.984;2023-03-07T02:26:22;4.29;94.40
47861;HTU21D;33620;52.340;5.984;2023-03-07T02:28:49;4.32;94.48
47861;HTU21D;33620;52.340;5.984;2023-03-07T02:31:14;4.31;94.42
47861;HTU21D;33620;52.340;5.984;2023-03-07T02:33:40;4.32;94.39
47861;HTU21D;33620;52.340;5.984;2023-03-07T02:36:07;4.29;94.38
47861;HTU21D;33620;52.340;5.984;2023-03-07T02:38:33;4.31;94.40
47861;HTU21D;33620;52.340;5.984;2023-03-07T02:41:02;4.30;94.28
47861;HTU21D;33620;52.340;5.984;2023-03-07T02:43:28;4.28;94.24
47861;HTU21D;33620;52.340;5.984;2023-03-07T02:45:53;4.21;94.44
47861;HTU21D;33620;52.340;5.984;2023-03-07T02:48:19;4.22;94.27
47861;HTU21D;33620;52.340;5.984;2023-03-07T02:50:46;4.24;94.23
47861;HTU21D;33620;52.340;5.984;2023-03-07T02:53:12;4.23;94.22
47861;HTU21D;33620;52.340;5.984;2023-03-07T02:55:37;4.18;94.25
47861;HTU21D;33620;52.340;5.984;2023-03-07T02:58:02;4.19;94.25
47861;HTU21D;33620;52.340;5.984;2023-03-07T03:00:27;4.20;94.33
47861;HTU21D;33620;52.340;5.984;2023-03-07T03:02:53;4.22;94.30
47861;HTU21D;33620;52.340;5.984;2023-03-07T03:05:19;4.21;94.33
47861;HTU21D;33620;52.340;5.984;2023-03-07T03:07:44;4.19;94.28
47861;HTU21D;33620;52.340;5.984;2023-03-07T03:10:10;4.21;94.32
47861;HTU21D;33620;52.340;5.984;2023-03-07T03:12:35;4.22;94.27
47861;HTU21D;33620;52.340;5.984;2023-03-07T03:15:00;4.19;94.23
47861;HTU21D;33620;52.340;5.984;2023-03-07T03:17:26;4.23;94.16
47861;HTU21D;33620;52.340;5.984;2023-03-07T03:19:51;4.26;94.12
47861;HTU21D;33620;52.340;5.984;2023-03-07T03:22:16;4.21;94.30
47861;HTU21D;33620;52.340;5.984;2023-03-07T03:24:42;4.19;94.30
47861;HTU21D;33620;52.340;5.984;2023-03-07T03:27:07;4.21;94.39
47861;HTU21D;33620;52.340;5.984;2023-03-07T03:29:33;4.18;94.49
47861;HTU21D;33620;52.340;5.984;2023-03-07T03:31:58;4.17;94.51
47861;HTU21D;33620;52.340;5.984;2023-03-07T03:34:24;4.20;94.62
47861;HTU21D;33620;52.340;5.984;2023-03-07T03:36:49;4.24;94.66
47861;HTU21D;33620;52.340;5.984;2023-03-07T03:39:15;4.15;94.46
47861;HTU21D;33620;52.340;5.984;2023-03-07T03:41:40;4.14;94.13
47861;HTU21D;33620;52.340;5.984;2023-03-07T03:44:05;4.17;94.05
47861;HTU21D;33620;52.340;5.984;2023-03-07T03:46:32;4.16;94.01
47861;HTU21D;33620;52.340;5.984;2023-03-07T03:48:57;4.17;93.90
47861;HTU21D;33620;52.340;5.984;2023-03-07T03:51:23;4.07;93.14
47861;HTU21D;33620;52.340;5.984;2023-03-07T03:53:48;4.12;93.31
47861;HTU21D;33620;52.340;5.984;2023-03-07T03:56:15;4.14;93.14
47861;HTU21D;33620;52.340;5.984;2023-03-07T03:58:41;4.15;92.99
47861;HTU21D;33620;52.340;5.984;2023-03-07T04:01:08;4.09;91.86
47861;HTU21D;33620;52.340;5.984;2023-03-07T04:03:37;4.04;90.88
47861;HTU21D;33620;52.340;5.984;2023-03-07T04:06:04;3.94;89.31
47861;HTU21D;33620;52.340;5.984;2023-03-07T04:08:30;3.99;90.00
47861;HTU21D;33620;52.340;5.984;2023-03-07T04:10:56;4.01;90.13
47861;HTU21D;33620;52.340;5.984;2023-03-07T04:13:21;3.97;89.93
47861;HTU21D;33620;52.340;5.984;2023-03-07T04:15:46;3.99;89.72
47861;HTU21D;33620;52.340;5.984;2023-03-07T04:18:11;3.91;89.16
47861;HTU21D;33620;52.340;5.984;2023-03-07T04:20:37;3.92;88.94
47861;HTU21D;33620;52.340;5.984;2023-03-07T04:23:02;3.90;89.12
47861;HTU21D;33620;52.340;5.984;2023-03-07T04:25:27;3.90;89.33
47861;HTU21D;33620;52.340;5.984;2023-03-07T04:27:53;3.89;89.28
47861;HTU21D;33620;52.340;5.984;2023-03-07T04:30:19;3.88;89.34
47861;HTU21D;33620;52.340;5.984;2023-03-07T04:32:44;3.86;89.62
47861;HTU21D;33620;52.340;5.984;2023-03-07T04:35:09;3.84;89.81
47861;HTU21D;33620;52.340;5.984;2023-03-07T04:37:35;3.79;89.98
47861;HTU21D;33620;52.340;5.984;2023-03-07T04:40:00;3.78;89.99
47861;HTU21D;33620;52.340;5.984;2023-03-07T04:42:25;3.82;90.01
47861;HTU21D;33620;52.340;5.984;2023-03-07T04:44:51;3.80;89.89
47861;HTU21D;33620;52.340;5.984;2023-03-07T04:47:16;3.79;89.95
47861;HTU21D;33620;52.340;5.984;2023-03-07T04:49:41;3.72;90.10
47861;HTU21D;33620;52.340;5.984;2023-03-07T04:52:06;3.72;89.58
47861;HTU21D;33620;52.340;5.984;2023-03-07T04:54:32;3.76;89.58
47861;HTU21D;33620;52.340;5.984;2023-03-07T04:56:57;3.74;89.39
47861;HTU21D;33620;52.340;5.984;2023-03-07T04:59:22;3.77;89.50
47861;HTU21D;33620;52.340;5.984;2023-03-07T05:01:48;3.83;89.70
47861;HTU21D;33620;52.340;5.984;2023-03-07T05:04:13;3.77;89.47
47861;HTU21D;33620;52.340;5.984;2023-03-07T05:06:38;3.73;89.42
47861;HTU21D;33620;52.340;5.984;2023-03-07T05:09:04;3.78;89.45
47861;HTU21D;33620;52.340;5.984;2023-03-07T05:11:29;3.73;89.35
47861;HTU21D;33620;52.340;5.984;2023-03-07T05:13:54;3.74;89.38
47861;HTU21D;33620;52.340;5.984;2023-03-07T05:16:19;3.80;89.46
47861;HTU21D;33620;52.340;5.984;2023-03-07T05:18:45;3.78;89.32
47861;HTU21D;33620;52.340;5.984;2023-03-07T05:21:10;3.78;89.59
47861;HTU21D;33620;52.340;5.984;2023-03-07T05:23:35;3.72;89.55
47861;HTU21D;33620;52.340;5.984;2023-03-07T05:26:01;3.75;89.70
47861;HTU21D;33620;52.340;5.984;2023-03-07T05:28:26;3.80;89.84
47861;HTU21D;33620;52.340;5.984;2023-03-07T05:30:52;3.80;89.97
47861;HTU21D;33620;52.340;5.984;2023-03-07T05:33:17;3.80;89.95
47861;HTU21D;33620;52.340;5.984;2023-03-07T05:35:42;3.76;90.01
47861;HTU21D;33620;52.340;5.984;2023-03-07T05:38:08;3.80;90.27
47861;HTU21D;33620;52.340;5.984;2023-03-07T05:40:33;3.86;90.14
47861;HTU21D;33620;52.340;5.984;2023-03-07T05:42:58;3.84;89.65
47861;HTU21D;33620;52.340;5.984;2023-03-07T05:45:24;3.83;89.36
47861;HTU21D;33620;52.340;5.984;2023-03-07T05:47:49;3.82;88.96
47861;HTU21D;33620;52.340;5.984;2023-03-07T05:50:14;3.80;88.67
47861;HTU21D;33620;52.340;5.984;2023-03-07T05:52:40;3.77;88.82
47861;HTU21D;33620;52.340;5.984;2023-03-07T05:55:05;3.78;88.72
47861;HTU21D;33620;52.340;5.984;2023-03-07T05:57:31;3.77;88.72
47861;HTU21D;33620;52.340;5.984;2023-03-07T05:59:56;3.82;88.99
47861;HTU21D;33620;52.340;5.984;2023-03-07T06:02:21;3.80;88.74
47861;HTU21D;33620;52.340;5.984;2023-03-07T06:04:47;3.76;88.43
47861;HTU21D;33620;52.340;5.984;2023-03-07T06:07:12;3.79;88.30
47861;HTU21D;33620;52.340;5.984;2023-03-07T06:09:37;3.71;87.51
47861;HTU21D;33620;52.340;5.984;2023-03-07T06:12:03;3.67;87.04
47861;HTU21D;33620;52.340;5.984;2023-03-07T06:14:29;3.60;86.71
47861;HTU21D;33620;52.340;5.984;2023-03-07T06:16:54;3.52;86.90
47861;HTU21D;33620;52.340;5.984;2023-03-07T06:19:19;3.56;87.68
47861;HTU21D;33620;52.340;5.984;2023-03-07T06:21:45;3.62;88.22
47861;HTU21D;33620;52.340;5.984;2023-03-07T06:24:10;3.54;88.71
47861;HTU21D;33620;52.340;5.984;2023-03-07T06:26:36;3.55;88.94
47861;HTU21D;33620;52.340;5.984;2023-03-07T06:29:01;3.48;89.05
47861;HTU21D;33620;52.340;5.984;2023-03-07T06:31:26;3.38;89.64
47861;HTU21D;33620;52.340;5.984;2023-03-07T06:33:52;3.35;90.14
47861;HTU21D;33620;52.340;5.984;2023-03-07T06:36:18;3.32;90.27
47861;HTU21D;33620;52.340;5.984;2023-03-07T06:38:43;3.19;90.75
47861;HTU21D;33620;52.340;5.984;2023-03-07T06:41:09;3.16;90.63
47861;HTU21D;33620;52.340;5.984;2023-03-07T06:43:34;3.06;90.95
47861;HTU21D;33620;52.340;5.984;2023-03-07T06:45:59;2.98;91.40
47861;HTU21D;33620;52.340;5.984;2023-03-07T06:48:25;3.00;91.54
47861;HTU21D;33620;52.340;5.984;2023-03-07T06:50:50;2.88;91.62
47861;HTU21D;33620;52.340;5.984;2023-03-07T06:53:15;2.86;91.60
47861;HTU21D;33620;52.340;5.984;2023-03-07T06:55:41;2.85;92.00
47861;HTU21D;33620;52.340;5.984;2023-03-07T06:58:06;2.86;92.26
47861;HTU21D;33620;52.340;5.984;2023-03-07T07:00:31;2.78;92.02
47861;HTU21D;33620;52.340;5.984;2023-03-07T07:02:57;2.75;92.28
47861;HTU21D;33620;52.340;5.984;2023-03-07T07:05:22;2.81;92.65
47861;HTU21D;33620;52.340;5.984;2023-03-07T07:07:47;2.85;92.74
47861;HTU21D;33620;52.340;5.984;2023-03-07T07:10:12;2.84;92.55
47861;HTU21D;33620;52.340;5.984;2023-03-07T07:12:38;2.68;92.68
47861;HTU21D;33620;52.340;5.984;2023-03-07T07:15:04;2.59;93.04
47861;HTU21D;33620;52.340;5.984;2023-03-07T07:17:30;2.49;93.23
47861;HTU21D;33620;52.340;5.984;2023-03-07T07:19:55;2.52;93.34
47861;HTU21D;33620;52.340;5.984;2023-03-07T07:22:21;2.54;93.33
47861;HTU21D;33620;52.340;5.984;2023-03-07T07:24:47;2.59;93.30
47861;HTU21D;33620;52.340;5.984;2023-03-07T07:27:12;2.58;93.17
47861;HTU21D;33620;52.340;5.984;2023-03-07T07:29:37;2.52;93.15
47861;HTU21D;33620;52.340;5.984;2023-03-07T07:32:03;2.55;93.09
47861;HTU21D;33620;52.340;5.984;2023-03-07T07:34:28;2.54;93.07
47861;HTU21D;33620;52.340;5.984;2023-03-07T07:36:53;2.57;93.22
47861;HTU21D;33620;52.340;5.984;2023-03-07T07:39:18;2.51;93.10
47861;HTU21D;33620;52.340;5.984;2023-03-07T07:41:45;2.45;93.32
47861;HTU21D;33620;52.340;5.984;2023-03-07T07:44:12;2.46;93.69
47861;HTU21D;33620;52.340;5.984;2023-03-07T07:46:37;2.51;93.67
47861;HTU21D;33620;52.340;5.984;2023-03-07T07:49:02;2.42;93.83
47861;HTU21D;33620;52.340;5.984;2023-03-07T07:51:28;2.49;94.01
47861;HTU21D;33620;52.340;5.984;2023-03-07T07:53:53;2.55;94.02
47861;HTU21D;33620;52.340;5.984;2023-03-07T07:56:18;2.56;93.83
47861;HTU21D;33620;52.340;5.984;2023-03-07T07:58:43;2.57;93.92
47861;HTU21D;33620;52.340;5.984;2023-03-07T08:03:37;2.64;94.04
47861;HTU21D;33620;52.340;5.984;2023-03-07T08:06:03;2.67;93.91
47861;HTU21D;33620;52.340;5.984;2023-03-07T08:08:28;2.68;93.99
47861;HTU21D;33620;52.340;5.984;2023-03-07T08:10:53;2.66;93.93
47861;HTU21D;33620;52.340;5.984;2023-03-07T08:13:18;2.67;94.00
47861;HTU21D;33620;52.340;5.984;2023-03-07T08:15:44;2.67;94.17
47861;HTU21D;33620;52.340;5.984;2023-03-07T08:18:10;2.61;94.16
47861;HTU21D;33620;52.340;5.984;2023-03-07T08:20:36;2.56;94.36
47861;HTU21D;33620;52.340;5.984;2023-03-07T08:23:01;2.58;94.46
47861;HTU21D;33620;52.340;5.984;2023-03-07T08:25:26;2.69;94.75
47861;HTU21D;33620;52.340;5.984;2023-03-07T08:27:52;2.71;94.53
47861;HTU21D;33620;52.340;5.984;2023-03-07T08:30:22;2.71;94.49
47861;HTU21D;33620;52.340;5.984;2023-03-07T08:32:51;2.78;94.66
47861;HTU21D;33620;52.340;5.984;2023-03-07T08:35:17;2.67;94.26
47861;HTU21D;33620;52.340;5.984;2023-03-07T08:37:42;2.78;94.78
47861;HTU21D;33620;52.340;5.984;2023-03-07T08:40:08;2.79;94.43
47861;HTU21D;33620;52.340;5.984;2023-03-07T08:42:33;2.84;94.68
47861;HTU21D;33620;52.340;5.984;2023-03-07T08:44:59;2.83;94.50
47861;HTU21D;33620;52.340;5.984;2023-03-07T08:47:24;2.79;94.21
47861;HTU21D;33620;52.340;5.984;2023-03-07T08:49:49;2.86;94.52
47861;HTU21D;33620;52.340;5.984;2023-03-07T08:52:15;2.85;94.85
47861;HTU21D;33620;52.340;5.984;2023-03-07T08:54:40;2.87;94.93
47861;HTU21D;33620;52.340;5.984;2023-03-07T08:57:05;2.93;94.98
47861;HTU21D;33620;52.340;5.984;2023-03-07T08:59:30;2.95;94.96
47861;HTU21D;33620;52.340;5.984;2023-03-07T09:01:56;2.93;94.56
47861;HTU21D;33620;52.340;5.984;2023-03-07T09:04:22;2.95;94.53
47861;HTU21D;33620;52.340;5.984;2023-03-07T09:06:47;3.00;94.49
47861;HTU21D;33620;52.340;5.984;2023-03-07T09:09:12;3.09;94.70
47861;HTU21D;33620;52.340;5.984;2023-03-07T09:11:38;3.13;94.69
47861;HTU21D;33620;52.340;5.984;2023-03-07T09:14:03;3.18;94.65
47861;HTU21D;33620;52.340;5.984;2023-03-07T09:16:28;3.26;94.71
47861;HTU21D;33620;52.340;5.984;2023-03-07T09:18:53;3.25;94.05
47861;HTU21D;33620;52.340;5.984;2023-03-07T09:21:19;3.38;94.56
47861;HTU21D;33620;52.340;5.984;2023-03-07T09:23:44;3.38;94.26
47861;HTU21D;33620;52.340;5.984;2023-03-07T09:26:09;3.36;93.82
47861;HTU21D;33620;52.340;5.984;2023-03-07T09:28:35;3.40;93.62
47861;HTU21D;33620;52.340;5.984;2023-03-07T09:31:05;3.45;93.81
47861;HTU21D;33620;52.340;5.984;2023-03-07T09:33:30;3.38;93.59
47861;HTU21D;33620;52.340;5.984;2023-03-07T09:35:56;3.43;93.75
47861;HTU21D;33620;52.340;5.984;2023-03-07T09:38:21;3.52;93.91
47861;HTU21D;33620;52.340;5.984;2023-03-07T09:40:47;3.50;93.76
47861;HTU21D;33620;52.340;5.984;2023-03-07T09:43:19;3.57;93.20
47861;HTU21D;33620;52.340;5.984;2023-03-07T09:51:21;3.69;92.61
47861;HTU21D;33620;52.340;5.984;2023-03-07T09:53:50;3.82;93.32
47861;HTU21D;33620;52.340;5.984;2023-03-07T09:56:21;3.79;92.21
47861;HTU21D;33620;52.340;5.984;2023-03-07T09:58:50;3.75;92.12
47861;HTU21D;33620;52.340;5.984;2023-03-07T10:01:18;3.73;91.90
47861;HTU21D;33620;52.340;5.984;2023-03-07T10:03:59;3.76;91.69
47861;HTU21D;33620;52.340;5.984;2023-03-07T10:06:26;3.75;91.61
47861;HTU21D;33620;52.340;5.984;2023-03-07T10:08:54;3.89;92.15
47861;HTU21D;33620;52.340;5.984;2023-03-07T10:11:31;3.97;92.16
47861;HTU21D;33620;52.340;5.984;2023-03-07T10:14:08;3.97;92.08
47861;HTU21D;33620;52.340;5.984;2023-03-07T10:16:35;4.04;92.30
47861;HTU21D;33620;52.340;5.984;2023-03-07T10:21:59;4.10;91.69
47861;HTU21D;33620;52.340;5.984;2023-03-07T10:27:12;4.15;91.67
47861;HTU21D;33620;52.340;5.984;2023-03-07T10:29:41;4.14;91.08
47861;HTU21D;33620;52.340;5.984;2023-03-07T10:32:31;4.05;90.89
47861;HTU21D;33620;52.340;5.984;2023-03-07T10:35:37;4.08;91.00
47861;HTU21D;33620;52.340;5.984;2023-03-07T10:43:15;4.20;91.88
47861;HTU21D;33620;52.340;5.984;2023-03-07T10:45:45;4.28;91.18
47861;HTU21D;33620;52.340;5.984;2023-03-07T10:48:14;4.34;91.05
47861;HTU21D;33620;52.340;5.984;2023-03-07T10:53:30;4.45;91.01
47861;HTU21D;33620;52.340;5.984;2023-03-07T10:56:08;4.53;90.45
47861;HTU21D;33620;52.340;5.984;2023-03-07T10:58:33;4.50;89.60
47861;HTU21D;33620;52.340;5.984;2023-03-07T11:03:38;4.65;89.03
47861;HTU21D;33620;52.340;5.984;2023-03-07T11:06:24;4.64;88.79
47861;HTU21D;33620;52.340;5.984;2023-03-07T11:08:49;4.66;88.80
47861;HTU21D;33620;52.340;5.984;2023-03-07T11:11:21;4.66;88.18
47861;HTU21D;33620;52.340;5.984;2023-03-07T11:14:03;4.69;87.84
47861;HTU21D;33620;52.340;5.984;2023-03-07T11:16:28;4.54;84.83
47861;HTU21D;33620;52.340;5.984;2023-03-07T11:18:54;4.51;85.81
47861;HTU21D;33620;52.340;5.984;2023-03-07T11:21:32;4.46;85.98
47861;HTU21D;33620;52.340;5.984;2023-03-07T11:24:02;4.47;86.25
47861;HTU21D;33620;52.340;5.984;2023-03-07T11:26:29;4.47;86.35
47861;HTU21D;33620;52.340;5.984;2023-03-07T11:36:39;4.42;85.68
47861;HTU21D;33620;52.340;5.984;2023-03-07T11:39:19;4.32;84.01
47861;HTU21D;33620;52.340;5.984;2023-03-07T11:41:49;4.32;83.65
47861;HTU21D;33620;52.340;5.984;2023-03-07T11:47:26;4.23;84.87
47861;HTU21D;33620;52.340;5.984;2023-03-07T11:49:47;4.27;85.13
47861;HTU21D;33620;52.340;5.984;2023-03-07T11:52:20;4.19;85.89
47861;HTU21D;33620;52.340;5.984;2023-03-07T11:57:51;4.06;85.91
47861;HTU21D;33620;52.340;5.984;2023-03-07T12:00:32;4.03;85.03
47861;HTU21D;33620;52.340;5.984;2023-03-07T12:08:07;3.92;83.81
47861;HTU21D;33620;52.340;5.984;2023-03-07T12:15:49;4.08;86.22
47861;HTU21D;33620;52.340;5.984;2023-03-07T12:23:29;4.30;86.45
47861;HTU21D;33620;52.340;5.984;2023-03-07T12:26:02;4.35;84.93
47861;HTU21D;33620;52.340;5.984;2023-03-07T12:28:42;4.32;83.97
47861;HTU21D;33620;52.340;5.984;2023-03-07T12:42:02;4.46;85.02
47861;HTU21D;33620;52.340;5.984;2023-03-07T12:45:12;4.36;84.90
47861;HTU21D;33620;52.340;5.984;2023-03-07T12:52:46;4.36;85.77
47861;HTU21D;33620;52.340;5.984;2023-03-07T12:55:22;4.33;85.33
47861;HTU21D;33620;52.340;5.984;2023-03-07T12:58:06;4.38;85.67
47861;HTU21D;33620;52.340;5.984;2023-03-07T13:00:34;4.44;85.38
47861;HTU21D;33620;52.340;5.984;2023-03-07T13:03:01;4.37;84.50
47861;HTU21D;33620;52.340;5.984;2023-03-07T13:05:28;4.37;84.60
47861;HTU21D;33620;52.340;5.984;2023-03-07T13:07:54;4.44;84.63
47861;HTU21D;33620;52.340;5.984;2023-03-07T13:10:21;4.48;83.80
47861;HTU21D;33620;52.340;5.984;2023-03-07T13:12:48;4.52;84.35
47861;HTU21D;33620;52.340;5.984;2023-03-07T13:27:48;4.69;83.50
47861;HTU21D;33620;52.340;5.984;2023-03-07T13:35:12;4.81;82.08
47861;HTU21D;33620;52.340;5.984;2023-03-07T13:42:49;4.78;83.79
47861;HTU21D;33620;52.340;5.984;2023-03-07T13:47:59;4.81;82.62
47861;HTU21D;33620;52.340;5.984;2023-03-07T13:53:00;4.56;78.77
47861;HTU21D;33620;52.340;5.984;2023-03-07T13:55:27;4.47;80.07
47861;HTU21D;33620;52.340;5.984;2023-03-07T13:57:53;4.49;81.54
47861;HTU21D;33620;52.340;5.984;2023-03-07T14:00:23;4.47;81.49
47861;HTU21D;33620;52.340;5.984;2023-03-07T14:02:49;4.50;82.04
47861;HTU21D;33620;52.340;5.984;2023-03-07T14:05:14;4.56;81.30
47861;HTU21D;33620;52.340;5.984;2023-03-07T14:07:41;4.47;81.82
47861;HTU21D;33620;52.340;5.984;2023-03-07T14:10:13;4.33;84.07
47861;HTU21D;33620;52.340;5.984;2023-03-07T14:17:48;3.93;86.56
47861;HTU21D;33620;52.340;5.984;2023-03-07T14:23:04;3.85;85.97
47861;HTU21D;33620;52.340;5.984;2023-03-07T14:25:36;3.87;85.74
47861;HTU21D;33620;52.340;5.984;2023-03-07T14:28:03;3.91;85.23
47861;HTU21D;33620;52.340;5.984;2023-03-07T14:30:30;3.89;84.70
47861;HTU21D;33620;52.340;5.984;2023-03-07T14:32:56;3.89;85.05
47861;HTU21D;33620;52.340;5.984;2023-03-07T14:35:31;3.83;85.26
47861;HTU21D;33620;52.340;5.984;2023-03-07T14:37:57;3.78;85.50
47861;HTU21D;33620;52.340;5.984;2023-03-07T14:50:42;3.74;84.10
47861;HTU21D;33620;52.340;5.984;2023-03-07T14:53:29;3.62;84.28
47861;HTU21D;33620;52.340;5.984;2023-03-07T14:55:54;3.62;85.09
47861;HTU21D;33620;52.340;5.984;2023-03-07T14:58:24;3.61;85.14
47861;HTU21D;33620;52.340;5.984;2023-03-07T15:03:26;3.48;85.27
47861;HTU21D;33620;52.340;5.984;2023-03-07T15:05:52;3.57;86.00
47861;HTU21D;33620;52.340;5.984;2023-03-07T15:10:48;3.45;85.77
47861;HTU21D;33620;52.340;5.984;2023-03-07T15:13:20;3.41;87.00
47861;HTU21D;33620;52.340;5.984;2023-03-07T15:15:48;3.35;87.61
47861;HTU21D;33620;52.340;5.984;2023-03-07T15:18:37;3.46;88.41
47861;HTU21D;33620;52.340;5.984;2023-03-07T15:21:01;3.40;88.28
47861;HTU21D;33620;52.340;5.984;2023-03-07T15:23:27;3.34;88.64
47861;HTU21D;33620;52.340;5.984;2023-03-07T15:26:01;3.18;89.14
47861;HTU21D;33620;52.340;5.984;2023-03-07T15:28:31;3.27;89.84
47861;HTU21D;33620;52.340;5.984;2023-03-07T15:30:57;3.23;89.96
47861;HTU21D;33620;52.340;5.984;2023-03-07T15:33:26;3.30;90.32
47861;HTU21D;33620;52.340;5.984;2023-03-07T15:38:36;3.29;89.37
47861;HTU21D;33620;52.340;5.984;2023-03-07T15:41:01;3.34;89.31
47861;HTU21D;33620;52.340;5.984;2023-03-07T15:43:46;3.36;88.92
47861;HTU21D;33620;52.340;5.984;2023-03-07T15:46:26;3.26;87.38
47861;HTU21D;33620;52.340;5.984;2023-03-07T15:48:52;3.28;87.67
47861;HTU21D;33620;52.340;5.984;2023-03-07T15:51:21;3.33;87.67
47861;HTU21D;33620;52.340;5.984;2023-03-07T15:53:54;3.31;87.17
47861;HTU21D;33620;52.340;5.984;2023-03-07T15:58:46;3.42;87.41
47861;HTU21D;33620;52.340;5.984;2023-03-07T16:09:04;3.13;85.90
47861;HTU21D;33620;52.340;5.984;2023-03-07T16:11:30;3.17;86.93
47861;HTU21D;33620;52.340;5.984;2023-03-07T16:13:56;3.16;87.28
47861;HTU21D;33620;52.340;5.984;2023-03-07T16:16:22;3.15;87.68
47861;HTU21D;33620;52.340;5.984;2023-03-07T16:18:48;3.14;88.04
47861;HTU21D;33620;52.340;5.984;2023-03-07T16:21:15;3.17;88.25
47861;HTU21D;33620;52.340;5.984;2023-03-07T16:23:40;3.17;88.63
47861;HTU21D;33620;52.340;5.984;2023-03-07T16:26:05;3.21;88.83
47861;HTU21D;33620;52.340;5.984;2023-03-07T16:28:31;3.15;88.72
47861;HTU21D;33620;52.340;5.984;2023-03-07T16:30:57;3.23;89.15
47861;HTU21D;33620;52.340;5.984;2023-03-07T16:33:22;3.30;89.05
47861;HTU21D;33620;52.340;5.984;2023-03-07T16:35:48;3.35;88.96
47861;HTU21D;33620;52.340;5.984;2023-03-07T16:38:13;3.26;88.75
47861;HTU21D;33620;52.340;5.984;2023-03-07T16:40:39;3.35;89.45
47861;HTU21D;33620;52.340;5.984;2023-03-07T16:43:10;3.42;89.15
47861;HTU21D;33620;52.340;5.984;2023-03-07T16:45:41;3.48;89.27
47861;HTU21D;33620;52.340;5.984;2023-03-07T16:48:07;3.54;88.99
47861;HTU21D;33620;52.340;5.984;2023-03-07T16:50:34;3.62;88.76
47861;HTU21D;33620;52.340;5.984;2023-03-07T16:52:59;3.61;88.35
47861;HTU21D;33620;52.340;5.984;2023-03-07T16:55:25;3.63;88.16
47861;HTU21D;33620;52.340;5.984;2023-03-07T16:57:52;3.67;88.17
47861;HTU21D;33620;52.340;5.984;2023-03-07T17:00:19;3.70;87.89
47861;HTU21D;33620;52.340;5.984;2023-03-07T17:02:45;3.70;87.40
47861;HTU21D;33620;52.340;5.984;2023-03-07T17:05:15;3.61;86.80
47861;HTU21D;33620;52.340;5.984;2023-03-07T17:07:41;3.42;86.41
47861;HTU21D;33620;52.340;5.984;2023-03-07T17:10:06;3.27;86.58
47861;HTU21D;33620;52.340;5.984;2023-03-07T17:12:32;3.15;86.92
47861;HTU21D;33620;52.340;5.984;2023-03-07T17:14:57;3.08;87.27
47861;HTU21D;33620;52.340;5.984;2023-03-07T17:17:26;3.01;87.43
47861;HTU21D;33620;52.340;5.984;2023-03-07T17:19:52;2.95;87.57
47861;HTU21D;33620;52.340;5.984;2023-03-07T17:22:18;2.93;87.63
47861;HTU21D;33620;52.340;5.984;2023-03-07T17:24:43;2.87;87.71
47861;HTU21D;33620;52.340;5.984;2023-03-07T17:27:08;2.71;88.01
47861;HTU21D;33620;52.340;5.984;2023-03-07T17:29:38;2.59;88.68
47861;HTU21D;33620;52.340;5.984;2023-03-07T17:32:05;2.55;89.38
47861;HTU21D;33620;52.340;5.984;2023-03-07T17:34:34;2.55;89.67
47861;HTU21D;33620;52.340;5.984;2023-03-07T17:36:59;2.55;89.73
47861;HTU21D;33620;52.340;5.984;2023-03-07T17:39:25;2.58;89.79
47861;HTU21D;33620;52.340;5.984;2023-03-07T17:41:53;2.60;89.49
47861;HTU21D;33620;52.340;5.984;2023-03-07T17:44:18;2.61;89.60
47861;HTU21D;33620;52.340;5.984;2023-03-07T17:46:43;2.68;89.76
47861;HTU21D;33620;52.340;5.984;2023-03-07T17:49:09;2.69;89.50
47861;HTU21D;33620;52.340;5.984;2023-03-07T17:51:34;2.68;89.35
47861;HTU21D;33620;52.340;5.984;2023-03-07T17:53:59;2.66;89.25